createdAt,value
2019-01-05T00:00:05.353Z,5.40
2019-01-05T00:01:05.504Z,6.10
2019-01-05T00:02:05.647Z,6.50
2019-01-05T00:03:05.789Z,5.30
2019-01-05T00:04:05.935Z,6.40
2019-01-05T00:05:06.080Z,6.10
2019-01-05T00:06:06.224Z,6.90
2019-01-05T00:07:06.367Z,6.70
2019-01-05T00:08:06.514Z,6.40
2019-01-05T00:09:06.657Z,7.90
2019-01-05T00:10:06.802Z,9.40
2019-01-05T00:11:06.946Z,6.50
2019-01-05T00:12:07.091Z,10.20
2019-01-05T00:13:07.238Z,6.80
2019-01-05T00:14:07.382Z,9.20
2019-01-05T00:15:07.525Z,5.50
2019-01-05T00:16:07.671Z,5.80
2019-01-05T00:17:07.816Z,6.20
2019-01-05T00:18:07.961Z,5.80
2019-01-05T00:19:08.107Z,6.90
2019-01-05T00:20:08.249Z,6.00
2019-01-05T00:21:08.395Z,5.50
2019-01-05T00:22:08.568Z,6.40
2019-01-05T00:23:08.714Z,5.70
2019-01-05T00:24:08.856Z,6.30
2019-01-05T00:25:08.999Z,6.10
2019-01-05T00:26:09.143Z,7.40
2019-01-05T00:27:09.286Z,5.10
2019-01-05T00:28:09.432Z,4.90
2019-01-05T00:29:09.575Z,5.50
2019-01-05T00:30:09.719Z,7.20
2019-01-05T00:31:09.860Z,6.90
2019-01-05T00:32:10.004Z,5.30
2019-01-05T00:33:10.149Z,5.50
2019-01-05T00:34:10.297Z,7.40
2019-01-05T00:35:10.438Z,6.00
2019-01-05T00:36:10.618Z,7.00
2019-01-05T00:37:10.726Z,5.20
2019-01-05T00:38:10.869Z,5.40
2019-01-05T00:39:11.011Z,7.00
2019-01-05T00:40:16.938Z,9.20
2019-01-05T00:41:11.303Z,5.50
2019-01-05T00:42:11.444Z,7.10
2019-01-05T00:43:11.589Z,7.20
2019-01-05T00:44:11.732Z,6.90
2019-01-05T00:45:11.879Z,7.50
2019-01-05T00:46:12.019Z,7.10
2019-01-05T00:47:12.166Z,7.40
2019-01-05T00:48:12.310Z,8.50
2019-01-05T00:49:12.453Z,9.10
2019-01-05T00:50:12.597Z,8.50
2019-01-05T00:51:12.742Z,7.50
2019-01-05T00:52:12.883Z,7.60
2019-01-05T00:53:13.031Z,7.30
2019-01-05T00:54:13.173Z,9.60
2019-01-05T00:55:13.319Z,8.10
2019-01-05T00:56:13.462Z,7.20
2019-01-05T00:57:13.609Z,8.50
2019-01-05T00:58:13.752Z,8.60
2019-01-05T00:59:13.899Z,7.50
2019-01-05T01:00:14.037Z,6.90
2019-01-05T01:01:14.182Z,7.40
2019-01-05T01:02:14.324Z,8.20
2019-01-05T01:03:14.470Z,6.70
2019-01-05T01:04:14.615Z,7.70
2019-01-05T01:05:14.757Z,7.50
2019-01-05T01:06:14.899Z,8.10
2019-01-05T01:07:15.042Z,8.40
2019-01-05T01:08:15.187Z,8.40
2019-01-05T01:09:15.330Z,9.50
2019-01-05T01:10:15.474Z,8.60
2019-01-05T01:11:15.620Z,8.10
2019-01-05T01:12:15.765Z,10.60
2019-01-05T01:13:15.907Z,7.50
2019-01-05T01:14:16.052Z,8.10
2019-01-05T01:15:16.195Z,8.00
2019-01-05T01:16:16.339Z,7.40
2019-01-05T01:17:16.485Z,7.50
2019-01-05T01:18:16.627Z,7.30
2019-01-05T01:19:16.772Z,7.10
2019-01-05T01:20:16.919Z,5.90
2019-01-05T01:21:17.061Z,6.80
2019-01-05T01:22:17.212Z,5.70
2019-01-05T01:23:17.348Z,7.10
2019-01-05T01:24:17.491Z,6.40
2019-01-05T01:25:17.636Z,5.80
2019-01-05T01:26:17.781Z,6.10
2019-01-05T01:27:17.929Z,6.90
2019-01-05T01:28:18.067Z,7.10
2019-01-05T01:29:18.214Z,6.40
2019-01-05T01:30:18.357Z,7.80
2019-01-05T01:31:18.507Z,6.70
2019-01-05T01:32:18.643Z,6.30
2019-01-05T01:33:18.789Z,8.00
2019-01-05T01:34:18.931Z,7.00
2019-01-05T01:35:19.080Z,8.20
2019-01-05T01:36:19.221Z,9.10
2019-01-05T01:37:19.365Z,7.10
2019-01-05T01:38:19.512Z,5.90
2019-01-05T01:39:19.653Z,6.30
2019-01-05T01:40:19.797Z,6.10
2019-01-05T01:41:19.939Z,9.20
2019-01-05T01:42:20.085Z,7.60
2019-01-05T01:43:20.228Z,6.80
2019-01-05T01:44:20.371Z,7.70
2019-01-05T01:45:20.519Z,7.20
2019-01-05T01:46:20.660Z,7.40
2019-01-05T01:47:20.805Z,7.80
2019-01-05T01:48:20.948Z,7.30
2019-01-05T01:49:21.091Z,7.80
2019-01-05T01:50:21.237Z,6.90
2019-01-05T01:51:21.382Z,8.00
2019-01-05T01:52:21.525Z,9.40
2019-01-05T01:53:21.666Z,9.20
2019-01-05T01:54:21.811Z,7.80
2019-01-05T01:55:21.952Z,8.10
2019-01-05T01:56:22.101Z,7.30
2019-01-05T01:57:22.241Z,10.90
2019-01-05T01:58:22.385Z,9.20
2019-01-05T01:59:22.529Z,7.70
2019-01-05T02:00:22.672Z,8.00
2019-01-05T02:01:22.816Z,6.60
2019-01-05T02:02:22.961Z,6.40
2019-01-05T02:03:23.107Z,7.80
2019-01-05T02:04:23.250Z,6.00
2019-01-05T02:05:23.395Z,6.60
2019-01-05T02:06:23.541Z,7.10
2019-01-05T02:07:23.684Z,8.70
2019-01-05T02:08:23.828Z,6.90
2019-01-05T02:09:23.972Z,8.30
2019-01-05T02:10:24.115Z,6.50
2019-01-05T02:11:24.259Z,7.40
2019-01-05T02:12:24.405Z,7.60
2019-01-05T02:13:24.551Z,7.80
2019-01-05T02:14:24.692Z,6.80
2019-01-05T02:15:24.834Z,6.90
2019-01-05T02:16:24.979Z,7.30
2019-01-05T02:17:25.122Z,6.60
2019-01-05T02:18:25.270Z,7.30
2019-01-05T02:19:25.413Z,7.20
2019-01-05T02:20:25.557Z,6.80
2019-01-05T02:21:25.701Z,6.00
2019-01-05T02:22:25.845Z,6.70
2019-01-05T02:23:25.991Z,7.40
2019-01-05T02:24:26.135Z,6.40
2019-01-05T02:25:26.282Z,6.70
2019-01-05T02:26:26.421Z,5.70
2019-01-05T02:27:26.566Z,7.20
2019-01-05T02:28:26.710Z,6.40
2019-01-05T02:29:26.853Z,6.30
2019-01-05T02:30:26.999Z,6.20
2019-01-05T02:31:27.140Z,6.40
2019-01-05T02:32:27.287Z,7.00
2019-01-05T02:33:27.431Z,7.90
2019-01-05T02:34:27.573Z,5.50
2019-01-05T02:35:27.724Z,6.20
2019-01-05T02:36:27.861Z,6.00
2019-01-05T02:37:28.003Z,6.20
2019-01-05T02:38:28.148Z,6.00
2019-01-05T02:39:28.297Z,6.20
2019-01-05T02:40:28.439Z,7.10
2019-01-05T02:41:28.580Z,5.80
2019-01-05T02:42:28.721Z,5.80
2019-01-05T02:43:28.869Z,6.50
2019-01-05T02:44:29.011Z,5.60
2019-01-05T02:45:29.162Z,4.30
2019-01-05T02:46:29.302Z,5.30
2019-01-05T02:47:29.447Z,6.10
2019-01-05T02:48:29.593Z,6.20
2019-01-05T02:49:29.734Z,5.10
2019-01-05T02:50:29.878Z,5.90
2019-01-05T02:51:30.023Z,5.60
2019-01-05T02:52:30.167Z,6.90
2019-01-05T02:53:30.309Z,5.50
2019-01-05T02:54:30.453Z,5.00
2019-01-05T02:55:30.596Z,5.30
2019-01-05T02:56:30.743Z,5.80
2019-01-05T02:57:30.885Z,5.60
2019-01-05T02:58:31.029Z,5.40
2019-01-05T02:59:31.172Z,6.00
2019-01-05T03:00:31.317Z,5.40
2019-01-05T03:01:31.461Z,5.30
2019-01-05T03:02:31.603Z,6.00
2019-01-05T03:03:31.748Z,6.20
2019-01-05T03:04:31.892Z,5.90
2019-01-05T03:05:32.036Z,5.00
2019-01-05T03:06:32.180Z,5.50
2019-01-05T03:07:32.326Z,4.60
2019-01-05T03:08:32.469Z,4.70
2019-01-05T03:09:32.613Z,4.70
2019-01-05T03:10:32.767Z,4.90
2019-01-05T03:11:32.902Z,5.00
2019-01-05T03:12:33.048Z,5.90
2019-01-05T03:13:33.194Z,5.10
2019-01-05T03:14:33.333Z,5.00
2019-01-05T03:15:33.480Z,4.70
2019-01-05T03:16:33.625Z,5.00
2019-01-05T03:17:33.770Z,5.10
2019-01-05T03:18:33.914Z,4.30
2019-01-05T03:19:34.059Z,5.50
2019-01-05T03:20:34.203Z,6.00
2019-01-05T03:21:34.350Z,4.60
2019-01-05T03:22:34.492Z,5.80
2019-01-05T03:23:34.637Z,4.70
2019-01-05T03:24:34.784Z,4.50
2019-01-05T03:25:34.926Z,5.00
2019-01-05T03:26:35.078Z,5.60
2019-01-05T03:27:35.214Z,6.20
2019-01-05T03:28:35.370Z,4.80
2019-01-05T03:29:35.500Z,4.90
2019-01-05T03:30:35.648Z,6.30
2019-01-05T03:31:35.789Z,4.10
2019-01-05T03:32:35.937Z,5.00
2019-01-05T03:33:36.076Z,5.40
2019-01-05T03:34:36.218Z,5.30
2019-01-05T03:35:36.363Z,5.30
2019-01-05T03:36:36.510Z,4.00
2019-01-05T03:37:36.653Z,5.30
2019-01-05T03:38:36.798Z,4.70
2019-01-05T03:39:36.943Z,5.50
2019-01-05T03:40:37.099Z,3.90
2019-01-05T03:41:37.237Z,4.70
2019-01-05T03:42:37.380Z,4.50
2019-01-05T03:43:37.521Z,3.60
2019-01-05T03:44:37.664Z,5.90
2019-01-05T03:45:37.807Z,5.70
2019-01-05T03:46:37.952Z,4.40
2019-01-05T03:47:38.098Z,3.50
2019-01-05T03:48:38.242Z,4.80
2019-01-05T03:49:38.386Z,4.40
2019-01-05T03:50:38.530Z,3.70
2019-01-05T03:51:38.706Z,3.70
2019-01-05T03:52:38.852Z,3.40
2019-01-05T03:53:38.997Z,4.00
2019-01-05T03:54:39.139Z,3.30
2019-01-05T03:55:39.286Z,4.30
2019-01-05T03:56:39.428Z,4.10
2019-01-05T03:57:39.584Z,4.30
2019-01-05T03:58:39.746Z,3.90
2019-01-05T03:59:39.891Z,3.60
2019-01-05T04:00:40.035Z,4.20
2019-01-05T04:01:40.180Z,3.60
2019-01-05T04:02:40.323Z,3.20
2019-01-05T04:03:40.471Z,3.10
2019-01-05T04:04:40.612Z,3.00
2019-01-05T04:05:40.757Z,4.00
2019-01-05T04:06:40.902Z,3.60
2019-01-05T04:07:41.043Z,3.20
2019-01-05T04:08:41.189Z,3.10
2019-01-05T04:09:41.337Z,3.70
2019-01-05T04:10:41.479Z,4.00
2019-01-05T04:11:41.622Z,3.30
2019-01-05T04:12:41.766Z,3.60
2019-01-05T04:13:41.912Z,3.40
2019-01-05T04:14:42.058Z,3.00
2019-01-05T04:15:42.203Z,3.10
2019-01-05T04:16:42.349Z,2.80
2019-01-05T04:17:42.491Z,4.10
2019-01-05T04:18:42.638Z,3.10
2019-01-05T04:19:42.782Z,3.30
2019-01-05T04:20:42.927Z,2.90
2019-01-05T04:21:43.072Z,3.50
2019-01-05T04:22:43.224Z,3.20
2019-01-05T04:23:43.368Z,3.90
2019-01-05T04:24:43.507Z,2.60
2019-01-05T04:25:43.648Z,3.40
2019-01-05T04:26:43.796Z,3.50
2019-01-05T04:27:43.936Z,3.40
2019-01-05T04:28:44.079Z,3.10
2019-01-05T04:29:44.224Z,3.00
2019-01-05T04:30:44.369Z,2.90
2019-01-05T04:31:44.513Z,3.10
2019-01-05T04:32:44.655Z,3.30
2019-01-05T04:33:44.800Z,3.90
2019-01-05T04:34:44.944Z,3.30
2019-01-05T04:35:45.089Z,2.70
2019-01-05T04:36:45.238Z,3.10
2019-01-05T04:37:45.383Z,3.20
2019-01-05T04:38:45.545Z,2.70
2019-01-05T04:39:45.701Z,3.40
2019-01-05T04:40:45.849Z,2.70
2019-01-05T04:41:45.990Z,2.50
2019-01-05T04:42:46.131Z,2.40
2019-01-05T04:43:46.276Z,3.10
2019-01-05T04:44:46.421Z,3.00
2019-01-05T04:45:46.566Z,2.60
2019-01-05T04:46:46.709Z,3.40
2019-01-05T04:47:46.853Z,3.10
2019-01-05T04:48:46.999Z,3.10
2019-01-05T04:49:47.146Z,3.70
2019-01-05T04:50:47.283Z,3.20
2019-01-05T04:51:47.428Z,4.00
2019-01-05T04:52:47.574Z,3.00
2019-01-05T04:53:47.720Z,3.10
2019-01-05T04:54:47.862Z,2.40
2019-01-05T04:55:48.005Z,2.50
2019-01-05T04:56:48.149Z,3.30
2019-01-05T04:57:48.293Z,2.70
2019-01-05T04:58:48.438Z,3.20
2019-01-05T04:59:48.581Z,2.90
2019-01-05T05:00:48.728Z,2.40
2019-01-05T05:01:48.884Z,3.30
2019-01-05T05:02:49.016Z,2.60
2019-01-05T05:03:49.159Z,3.10
2019-01-05T05:04:49.306Z,4.00
2019-01-05T05:05:49.452Z,3.00
2019-01-05T05:06:49.595Z,3.20
2019-01-05T05:07:49.736Z,3.40
2019-01-05T05:08:49.882Z,2.40
2019-01-05T05:09:50.025Z,2.80
2019-01-05T05:10:50.172Z,3.70
2019-01-05T05:11:50.313Z,2.60
2019-01-05T05:12:50.460Z,2.60
2019-01-05T05:13:50.604Z,2.60
2019-01-05T05:14:50.748Z,2.60
2019-01-05T05:15:50.894Z,2.90
2019-01-05T05:16:51.039Z,2.40
2019-01-05T05:17:51.182Z,3.00
2019-01-05T05:18:51.329Z,3.20
2019-01-05T05:19:51.472Z,2.70
2019-01-05T05:20:51.616Z,3.10
2019-01-05T05:21:51.761Z,2.80
2019-01-05T05:22:51.903Z,2.90
2019-01-05T05:23:52.049Z,2.80
2019-01-05T05:24:52.191Z,2.40
2019-01-05T05:25:52.338Z,2.70
2019-01-05T05:26:52.483Z,3.20
2019-01-05T05:27:52.627Z,3.50
2019-01-05T05:28:52.771Z,3.10
2019-01-05T05:29:52.915Z,3.10
2019-01-05T05:30:53.063Z,3.30
2019-01-05T05:31:53.211Z,3.20
2019-01-05T05:32:53.351Z,2.70
2019-01-05T05:33:53.495Z,3.40
2019-01-05T05:34:53.639Z,3.50
2019-01-05T05:35:53.785Z,3.00
2019-01-05T05:36:53.929Z,3.30
2019-01-05T05:37:54.074Z,3.10
2019-01-05T05:38:54.221Z,2.90
2019-01-05T05:39:54.367Z,2.30
2019-01-05T05:40:54.512Z,3.00
2019-01-05T05:41:54.657Z,2.30
2019-01-05T05:42:54.806Z,2.40
2019-01-05T05:43:54.947Z,2.90
2019-01-05T05:44:55.090Z,2.60
2019-01-05T05:45:55.234Z,2.60
2019-01-05T05:46:55.381Z,2.90
2019-01-05T05:47:55.528Z,2.40
2019-01-05T05:48:55.671Z,2.50
2019-01-05T05:49:55.817Z,2.60
2019-01-05T05:50:55.961Z,2.70
2019-01-05T05:51:56.109Z,2.70
2019-01-05T05:52:56.255Z,2.40
2019-01-05T05:53:56.444Z,2.70
2019-01-05T05:54:56.551Z,2.50
2019-01-05T05:55:56.682Z,2.80
2019-01-05T05:56:56.828Z,2.80
2019-01-05T05:57:56.972Z,2.40
2019-01-05T05:58:57.119Z,3.00
2019-01-05T05:59:57.263Z,2.80
2019-01-05T06:00:57.408Z,2.60
2019-01-05T06:01:57.552Z,2.30
2019-01-05T06:02:57.697Z,2.60
2019-01-05T06:03:57.841Z,2.60
2019-01-05T06:04:57.988Z,2.00
2019-01-05T06:05:58.132Z,2.10
2019-01-05T06:06:58.279Z,2.20
2019-01-05T06:07:58.425Z,2.20
2019-01-05T06:08:58.567Z,2.40
2019-01-05T06:09:58.711Z,2.80
2019-01-05T06:10:58.858Z,2.10
2019-01-05T06:11:59.002Z,2.30
2019-01-05T06:12:59.147Z,3.00
2019-01-05T06:13:59.290Z,2.80
2019-01-05T06:14:59.439Z,2.60
2019-01-05T06:15:59.583Z,2.10
2019-01-05T06:16:59.729Z,2.00
2019-01-05T06:17:59.873Z,2.30
2019-01-05T06:19:00.019Z,2.20
2019-01-05T06:20:00.236Z,2.30
2019-01-05T06:21:00.311Z,3.40
2019-01-05T06:22:00.473Z,2.90
2019-01-05T06:23:00.597Z,2.30
2019-01-05T06:24:00.742Z,2.20
2019-01-05T06:25:00.887Z,2.60
2019-01-05T06:26:01.031Z,2.10
2019-01-05T06:27:01.176Z,1.80
2019-01-05T06:28:01.321Z,2.40
2019-01-05T06:29:01.468Z,2.60
2019-01-05T06:30:01.616Z,3.10
2019-01-05T06:31:01.760Z,2.40
2019-01-05T06:32:01.913Z,2.80
2019-01-05T06:33:02.050Z,2.50
2019-01-05T06:34:02.194Z,2.00
2019-01-05T06:35:02.342Z,1.70
2019-01-05T06:36:02.483Z,2.20
2019-01-05T06:37:02.632Z,2.10
2019-01-05T06:38:02.773Z,2.20
2019-01-05T06:39:02.918Z,1.90
2019-01-05T06:40:03.063Z,2.40
2019-01-05T06:41:03.205Z,1.80
2019-01-05T06:42:03.352Z,2.00
2019-01-05T06:43:03.496Z,1.80
2019-01-05T06:44:03.643Z,1.80
2019-01-05T06:45:03.787Z,1.70
2019-01-05T06:46:03.932Z,2.20
2019-01-05T06:47:04.083Z,2.00
2019-01-05T06:48:04.229Z,2.20
2019-01-05T06:49:04.371Z,2.50
2019-01-05T06:50:04.517Z,2.00
2019-01-05T06:51:04.662Z,2.00
2019-01-05T06:52:04.810Z,1.80
2019-01-05T06:53:04.951Z,1.60
2019-01-05T06:54:05.098Z,2.00
2019-01-05T06:55:05.241Z,3.10
2019-01-05T06:56:05.389Z,1.80
2019-01-05T06:57:05.532Z,2.30
2019-01-05T06:58:05.676Z,2.00
2019-01-05T06:59:05.823Z,1.90
2019-01-05T07:00:05.972Z,1.70
2019-01-05T07:01:06.114Z,1.70
2019-01-05T07:02:06.258Z,2.40
2019-01-05T07:03:06.402Z,2.20
2019-01-05T07:04:06.549Z,1.60
2019-01-05T07:05:06.693Z,1.60
2019-01-05T07:06:06.840Z,1.90
2019-01-05T07:07:06.987Z,1.70
2019-01-05T07:08:07.139Z,1.80
2019-01-05T07:09:07.280Z,1.50
2019-01-05T07:10:07.427Z,1.50
2019-01-05T07:11:07.572Z,1.60
2019-01-05T07:12:07.714Z,1.80
2019-01-05T07:13:07.860Z,1.60
2019-01-05T07:14:08.005Z,1.80
2019-01-05T07:15:08.147Z,1.70
2019-01-05T07:16:08.293Z,1.40
2019-01-05T07:17:08.440Z,1.50
2019-01-05T07:18:08.584Z,2.00
2019-01-05T07:19:08.729Z,1.60
2019-01-05T07:20:08.872Z,1.80
2019-01-05T07:21:09.017Z,1.50
2019-01-05T07:22:09.164Z,1.70
2019-01-05T07:23:09.311Z,1.30
2019-01-05T07:24:09.454Z,1.50
2019-01-05T07:25:09.599Z,1.60
2019-01-05T07:26:09.749Z,1.50
2019-01-05T07:27:09.888Z,1.60
2019-01-05T07:28:10.032Z,1.60
2019-01-05T07:29:10.178Z,1.60
2019-01-05T07:30:10.326Z,1.50
2019-01-05T07:31:10.472Z,1.60
2019-01-05T07:32:10.617Z,1.40
2019-01-05T07:33:10.761Z,1.50
2019-01-05T07:34:10.904Z,1.30
2019-01-05T07:35:11.053Z,1.50
2019-01-05T07:36:11.194Z,1.40
2019-01-05T07:37:11.342Z,1.50
2019-01-05T07:38:11.490Z,1.90
2019-01-05T07:39:11.634Z,1.40
2019-01-05T07:40:11.779Z,1.90
2019-01-05T07:41:11.922Z,1.50
2019-01-05T07:42:12.068Z,1.40
2019-01-05T07:43:12.217Z,1.40
2019-01-05T07:44:12.357Z,1.40
2019-01-05T07:45:12.501Z,1.50
2019-01-05T07:46:12.647Z,1.50
2019-01-05T07:47:12.794Z,2.00
2019-01-05T07:48:12.938Z,1.60
2019-01-05T07:49:13.083Z,1.60
2019-01-05T07:50:13.229Z,1.60
2019-01-05T07:51:13.375Z,1.50
2019-01-05T07:52:13.520Z,1.60
2019-01-05T07:53:13.665Z,2.00
2019-01-05T07:54:13.813Z,2.20
2019-01-05T07:55:13.956Z,2.10
2019-01-05T07:56:14.100Z,1.80
2019-01-05T07:57:14.247Z,1.60
2019-01-05T07:58:14.392Z,1.60
2019-01-05T07:59:14.538Z,1.60
2019-01-05T08:00:14.684Z,1.60
2019-01-05T08:01:14.831Z,1.50
2019-01-05T08:02:14.978Z,1.50
2019-01-05T08:03:15.122Z,1.70
2019-01-05T08:04:15.267Z,1.50
2019-01-05T08:05:15.412Z,2.20
2019-01-05T08:06:16.035Z,1.50
2019-01-05T08:07:15.703Z,1.70
2019-01-05T08:08:15.849Z,1.60
2019-01-05T08:09:15.995Z,1.80
2019-01-05T08:10:16.142Z,1.60
2019-01-05T08:11:16.287Z,1.40
2019-01-05T08:12:16.437Z,1.50
2019-01-05T08:13:16.578Z,1.40
2019-01-05T08:14:16.726Z,1.40
2019-01-05T08:15:16.872Z,1.50
2019-01-05T08:16:17.017Z,1.30
2019-01-05T08:17:17.165Z,1.30
2019-01-05T08:18:17.306Z,1.60
2019-01-05T08:19:17.453Z,2.50
2019-01-05T08:20:17.602Z,1.40
2019-01-05T08:21:17.745Z,2.20
2019-01-05T08:22:17.891Z,3.10
2019-01-05T08:23:18.036Z,1.20
2019-01-05T08:24:18.180Z,1.40
2019-01-05T08:25:18.326Z,1.30
2019-01-05T08:26:18.471Z,1.10
2019-01-05T08:27:18.614Z,1.60
2019-01-05T08:28:18.760Z,1.50
2019-01-05T08:29:18.907Z,1.40
2019-01-05T08:30:19.055Z,1.80
2019-01-05T08:31:19.207Z,1.30
2019-01-05T08:32:19.343Z,1.30
2019-01-05T08:33:19.491Z,1.40
2019-01-05T08:34:19.637Z,1.20
2019-01-05T08:35:19.783Z,1.20
2019-01-05T08:36:19.930Z,1.00
2019-01-05T08:37:20.076Z,1.40
2019-01-05T08:38:20.225Z,1.20
2019-01-05T08:39:20.371Z,1.30
2019-01-05T08:40:20.518Z,1.10
2019-01-05T08:41:20.664Z,1.40
2019-01-05T08:42:20.809Z,1.40
2019-01-05T08:43:20.955Z,1.50
2019-01-05T08:44:21.102Z,1.50
2019-01-05T08:45:21.249Z,1.30
2019-01-05T08:46:21.401Z,1.20
2019-01-05T08:47:21.542Z,1.40
2019-01-05T08:48:21.687Z,1.30
2019-01-05T08:49:21.834Z,6.20
2019-01-05T08:50:21.977Z,3.70
2019-01-05T08:51:22.128Z,6.20
2019-01-05T08:52:22.272Z,2.90
2019-01-05T08:53:22.421Z,2.90
2019-01-05T08:54:22.566Z,3.30
2019-01-05T08:55:22.710Z,3.70
2019-01-05T08:56:22.858Z,2.90
2019-01-05T08:57:23.004Z,3.20
2019-01-05T08:58:23.152Z,2.20
2019-01-05T08:59:23.301Z,1.50
2019-01-05T09:00:23.445Z,1.30
2019-01-05T09:01:23.591Z,1.10
2019-01-05T09:02:23.818Z,1.30
2019-01-05T09:03:23.886Z,1.20
2019-01-05T09:04:24.035Z,1.30
2019-01-05T09:05:24.179Z,1.10
2019-01-05T09:06:24.326Z,1.10
2019-01-05T09:07:24.472Z,1.30
2019-01-05T09:08:24.623Z,3.10
2019-01-05T09:09:24.766Z,3.60
2019-01-05T09:10:24.914Z,1.70
2019-01-05T09:11:25.065Z,1.20
2019-01-05T09:12:25.218Z,1.30
2019-01-05T09:13:25.356Z,2.00
2019-01-05T09:14:25.503Z,2.90
2019-01-05T09:15:25.655Z,3.30
2019-01-05T09:16:25.799Z,2.20
2019-01-05T09:17:25.945Z,1.70
2019-01-05T09:18:26.094Z,2.40
2019-01-05T09:19:26.240Z,1.90
2019-01-05T09:20:26.384Z,2.00
2019-01-05T09:21:26.531Z,1.40
2019-01-05T09:22:26.676Z,1.70
2019-01-05T09:23:26.824Z,2.00
2019-01-05T09:24:26.975Z,1.60
2019-01-05T09:25:27.120Z,2.00
2019-01-05T09:26:27.267Z,3.90
2019-01-05T09:27:27.415Z,1.40
2019-01-05T09:28:27.567Z,1.60
2019-01-05T09:29:27.712Z,2.30
2019-01-05T09:30:27.857Z,1.70
2019-01-05T09:31:28.008Z,2.20
2019-01-05T09:32:28.155Z,1.60
2019-01-05T09:33:28.303Z,1.70
2019-01-05T09:34:28.451Z,1.60
2019-01-05T09:35:28.596Z,2.70
2019-01-05T09:36:28.741Z,1.20
2019-01-05T09:37:28.903Z,1.80
2019-01-05T09:38:29.039Z,1.10
2019-01-05T09:39:29.185Z,0.90
2019-01-05T09:40:29.331Z,1.00
2019-01-05T09:41:29.480Z,1.00
2019-01-05T09:42:29.626Z,1.10
2019-01-05T09:43:29.774Z,0.90
2019-01-05T09:44:29.915Z,1.10
2019-01-05T09:45:30.059Z,1.00
2019-01-05T09:46:30.208Z,0.90
2019-01-05T09:47:30.353Z,1.00
2019-01-05T09:48:30.503Z,1.00
2019-01-05T09:49:30.651Z,0.90
2019-01-05T09:50:30.797Z,1.00
2019-01-05T09:51:30.943Z,1.00
2019-01-05T09:52:31.092Z,0.90
2019-01-05T09:53:31.237Z,0.90
2019-01-05T09:54:31.384Z,1.00
2019-01-05T09:55:31.532Z,0.90
2019-01-05T09:56:31.678Z,1.10
2019-01-05T09:57:31.827Z,1.10
2019-01-05T09:58:31.975Z,1.20
2019-01-05T09:59:32.122Z,1.00
2019-01-05T10:00:32.269Z,1.00
2019-01-05T10:01:32.417Z,0.90
2019-01-05T10:02:32.564Z,1.00
2019-01-05T10:03:32.714Z,1.00
2019-01-05T10:04:32.861Z,0.90
2019-01-05T10:05:33.011Z,1.10
2019-01-05T10:06:33.154Z,1.10
2019-01-05T10:07:33.296Z,0.90
2019-01-05T10:08:33.444Z,1.00
2019-01-05T10:09:33.590Z,1.60
2019-01-05T10:10:33.737Z,1.20
2019-01-05T10:11:33.901Z,0.90
2019-01-05T10:12:34.051Z,1.00
2019-01-05T10:13:34.203Z,0.90
2019-01-05T10:14:34.347Z,1.00
2019-01-05T10:15:34.495Z,1.10
2019-01-05T10:16:34.642Z,1.60
2019-01-05T10:17:34.789Z,1.00
2019-01-05T10:18:34.937Z,1.20
2019-01-05T10:19:35.085Z,1.10
2019-01-05T10:20:35.230Z,1.20
2019-01-05T10:21:35.380Z,1.90
2019-01-05T10:22:35.526Z,2.40
2019-01-05T10:23:35.678Z,2.00
2019-01-05T10:24:35.823Z,1.80
2019-01-05T10:25:35.970Z,1.20
2019-01-05T10:26:36.169Z,1.20
2019-01-05T10:27:36.264Z,1.10
2019-01-05T10:28:36.411Z,1.70
2019-01-05T10:29:36.561Z,0.90
2019-01-05T10:30:36.709Z,0.90
2019-01-05T10:31:36.854Z,1.20
2019-01-05T10:32:37.005Z,1.20
2019-01-05T10:33:37.150Z,1.00
2019-01-05T10:34:37.296Z,0.90
2019-01-05T10:35:37.443Z,1.00
2019-01-05T10:36:37.590Z,0.80
2019-01-05T10:37:37.737Z,1.20
2019-01-05T10:38:37.887Z,1.50
2019-01-05T10:39:38.033Z,0.90
2019-01-05T10:40:38.181Z,1.90
2019-01-05T10:41:38.329Z,1.00
2019-01-05T10:42:38.474Z,2.00
2019-01-05T10:43:38.625Z,1.10
2019-01-05T10:44:38.769Z,1.20
2019-01-05T10:45:38.917Z,1.00
2019-01-05T10:46:39.066Z,0.90
2019-01-05T10:47:39.212Z,1.00
2019-01-05T10:48:39.358Z,1.10
2019-01-05T10:49:39.513Z,1.40
2019-01-05T10:50:39.660Z,1.00
2019-01-05T10:51:39.806Z,1.00
2019-01-05T10:52:39.955Z,1.10
2019-01-05T10:53:40.105Z,2.40
2019-01-05T10:54:40.253Z,0.90
2019-01-05T10:55:40.399Z,1.10
2019-01-05T10:56:40.547Z,2.40
2019-01-05T10:57:40.694Z,0.90
2019-01-05T10:58:40.839Z,3.50
2019-01-05T10:59:40.990Z,0.90
2019-01-05T11:00:41.133Z,2.00
2019-01-05T11:01:41.284Z,1.90
2019-01-05T11:02:41.429Z,2.40
2019-01-05T11:03:41.576Z,0.90
2019-01-05T11:04:41.723Z,1.10
2019-01-05T11:05:41.873Z,0.90
2019-01-05T11:06:42.017Z,0.90
2019-01-05T11:07:42.168Z,1.00
2019-01-05T11:08:42.314Z,2.30
2019-01-05T11:09:42.463Z,1.30
2019-01-05T11:10:42.613Z,0.90
2019-01-05T11:11:42.761Z,0.90
2019-01-05T11:12:42.907Z,1.10
2019-01-05T11:13:43.051Z,1.30
2019-01-05T11:14:43.200Z,0.80
2019-01-05T11:15:43.347Z,0.90
2019-01-05T11:16:43.494Z,1.10
2019-01-05T11:17:43.640Z,0.90
2019-01-05T11:18:43.787Z,0.90
2019-01-05T11:19:43.933Z,1.60
2019-01-05T11:20:44.086Z,3.70
2019-01-05T11:21:44.230Z,1.80
2019-01-05T11:22:44.375Z,1.50
2019-01-05T11:23:44.526Z,0.90
2019-01-05T11:24:44.673Z,0.90
2019-01-05T11:25:44.816Z,1.80
2019-01-05T11:26:44.961Z,2.00
2019-01-05T11:27:45.117Z,1.30
2019-01-05T11:28:45.265Z,0.90
2019-01-05T11:29:45.405Z,1.20
2019-01-05T11:30:45.550Z,0.90
2019-01-05T11:31:45.696Z,1.10
2019-01-05T11:32:45.857Z,1.10
2019-01-05T11:33:45.993Z,1.00
2019-01-05T11:34:46.145Z,1.20
2019-01-05T11:35:46.294Z,0.90
2019-01-05T11:36:46.441Z,0.90
2019-01-05T11:37:46.589Z,0.90
2019-01-05T11:38:46.741Z,0.90
2019-01-05T11:39:46.882Z,1.00
2019-01-05T11:40:47.031Z,0.90
2019-01-05T11:41:47.179Z,0.80
2019-01-05T11:42:47.326Z,1.10
2019-01-05T11:43:47.474Z,1.20
2019-01-05T11:44:47.620Z,1.00
2019-01-05T11:45:47.777Z,0.90
2019-01-05T11:46:47.917Z,1.00
2019-01-05T11:47:48.063Z,0.90
2019-01-05T11:48:48.209Z,0.90
2019-01-05T11:49:48.357Z,0.90
2019-01-05T11:50:48.507Z,0.90
2019-01-05T11:51:48.652Z,4.40
2019-01-05T11:52:48.798Z,2.60
2019-01-05T11:53:48.946Z,0.90
2019-01-05T11:54:49.100Z,1.10
2019-01-05T11:55:49.237Z,0.90
2019-01-05T11:56:49.385Z,1.00
2019-01-05T11:57:49.530Z,0.90
2019-01-05T11:58:49.687Z,1.00
2019-01-05T11:59:49.834Z,1.00
2019-01-05T12:00:49.982Z,2.00
2019-01-05T12:01:50.130Z,1.30
2019-01-05T12:02:50.281Z,1.00
2019-01-05T12:03:50.441Z,1.10
2019-01-05T12:04:50.576Z,1.60
2019-01-05T12:05:50.724Z,0.90
2019-01-05T12:06:50.888Z,1.00
2019-01-05T12:07:51.018Z,0.90
2019-01-05T12:08:51.166Z,0.90
2019-01-05T12:09:51.318Z,1.00
2019-01-05T12:10:51.473Z,1.40
2019-01-05T12:11:51.611Z,1.00
2019-01-05T12:12:51.759Z,1.00
2019-01-05T12:13:51.909Z,1.00
2019-01-05T12:14:52.052Z,0.90
2019-01-05T12:15:52.201Z,1.30
2019-01-05T12:16:52.350Z,0.90
2019-01-05T12:17:52.496Z,1.10
2019-01-05T12:18:52.643Z,0.90
2019-01-05T12:19:52.804Z,1.80
2019-01-05T12:20:52.952Z,1.30
2019-01-05T12:21:53.100Z,0.80
2019-01-05T12:22:53.245Z,1.20
2019-01-05T12:23:53.390Z,3.10
2019-01-05T12:24:53.535Z,1.50
2019-01-05T12:25:53.685Z,1.90
2019-01-05T12:26:53.833Z,1.20
2019-01-05T12:27:53.978Z,1.00
2019-01-05T12:28:54.126Z,1.00
2019-01-05T12:29:54.272Z,1.00
2019-01-05T12:30:54.420Z,1.00
2019-01-05T12:31:54.564Z,1.60
2019-01-05T12:32:54.716Z,1.10
2019-01-05T12:33:54.866Z,0.90
2019-01-05T12:34:55.012Z,1.10
2019-01-05T12:35:55.157Z,1.00
2019-01-05T12:36:55.308Z,1.00
2019-01-05T12:37:55.455Z,1.00
2019-01-05T12:38:55.599Z,1.30
2019-01-05T12:39:55.745Z,1.00
2019-01-05T12:40:55.890Z,1.30
2019-01-05T12:41:56.039Z,1.30
2019-01-05T12:42:56.185Z,1.10
2019-01-05T12:43:56.331Z,1.20
2019-01-05T12:44:56.479Z,2.20
2019-01-05T12:45:56.632Z,1.70
2019-01-05T12:46:56.780Z,1.10
2019-01-05T12:47:56.939Z,1.80
2019-01-05T12:48:57.097Z,1.50
2019-01-05T12:49:57.244Z,2.50
2019-01-05T12:50:57.391Z,1.20
2019-01-05T12:51:57.538Z,1.00
2019-01-05T12:52:57.691Z,1.30
2019-01-05T12:53:57.838Z,1.60
2019-01-05T12:54:57.985Z,0.90
2019-01-05T12:55:58.136Z,1.40
2019-01-05T12:56:58.308Z,1.90
2019-01-05T12:57:58.434Z,1.00
2019-01-05T12:58:58.578Z,1.00
2019-01-05T12:59:58.757Z,0.90
2019-01-05T13:00:58.878Z,1.30
2019-01-05T13:01:59.025Z,1.10
2019-01-05T13:02:59.172Z,1.00
2019-01-05T13:03:59.316Z,1.00
2019-01-05T13:04:59.465Z,0.80
2019-01-05T13:05:59.618Z,1.00
2019-01-05T13:06:59.763Z,1.30
2019-01-05T13:07:59.909Z,2.00
2019-01-05T13:09:00.059Z,2.30
2019-01-05T13:10:00.243Z,2.30
2019-01-05T13:11:00.355Z,1.90
2019-01-05T13:12:00.501Z,1.80
2019-01-05T13:13:00.647Z,1.10
2019-01-05T13:14:00.796Z,0.90
2019-01-05T13:15:00.945Z,1.20
2019-01-05T13:16:01.091Z,1.80
2019-01-05T13:17:01.266Z,1.10
2019-01-05T13:18:01.386Z,0.90
2019-01-05T13:19:01.537Z,0.90
2019-01-05T13:20:01.693Z,0.90